Latest Weather Observations for Mount Keith

IDW60801

Issued at 11:35 am WST Saturday 1 November 2014 (issued every 30 minutes, with the page automatically refreshed every 10 minutes)

About weather observations | Map of weather stations | Latest weather observations for WA | Other Formats
Station Details ID: 512019 Name: MOUNT KEITH Lat: -27.29 Lon: 120.55 Height: 542.33 m
Data from the previous 72 hours. | See also: Recent months for locations in Western Australia
Date/Time
WST
Temp
°C
App
Temp
°C
Dew
Point
Rel
Hum
%
Delta-T
°C
Wind Press
QNH
hPa
Press
MSL
hPa
Rain
since 9 am
mm
Dir
 
Spd
km/h
Gust
km/h
Spd
kts
Gust
kts
01/11:30am 24.8 21.0 7.4 33 9.4 ENE 17 28 9 15 1018.0 1014.6 0.0
01/11:00am 25.2 21.1 8.7 35 9.1 E 20 32 11 17 1018.4 1015.1 0.0
01/10:30am 23.5 19.0 8.4 38 8.2 ENE 22 33 12 18 1019.0 1015.6 0.0
01/10:00am 22.8 17.2 8.9 41 7.6 NE 28 35 15 19 1019.2 1015.8 0.0
01/09:30am 22.1 17.1 9.6 45 6.9 E 26 39 14 21 1019.4 1016.0 0.0
01/09:00am 20.9 15.5 9.5 48 6.2 E 28 37 15 20 1019.5 1016.1 -
01/08:30am 20.4 14.9 9.3 49 6.1 E 28 37 15 20 1019.6 1016.2 -
01/08:00am 19.4 13.9 9.0 51 5.6 E 28 37 15 20 1019.5 1016.1 -
01/07:30am 19.5 14.0 9.1 51 5.6 E 28 41 15 22 1019.3 1016.7 -
01/07:00am 18.8 12.9 9.0 53 5.3 E 30 41 16 22 1018.8 1016.3 -
01/06:30am 18.8 14.1 9.3 54 5.1 E 24 33 13 18 1018.6 1016.1 -
01/06:00am 17.9 13.8 7.9 52 5.2 E 19 28 10 15 1018.1 1015.6 -
01/05:30am 17.3 13.1 7.4 52 5.1 ESE 19 28 10 15 1017.6 1015.0 -
01/05:00am 17.3 13.0 7.1 51 5.2 ESE 19 24 10 13 1017.1 1014.5 -
01/04:30am 17.6 13.3 7.1 50 5.4 ESE 19 24 10 13 1016.4 1013.9 -
01/04:00am 18.1 13.2 6.9 48 5.8 ESE 22 30 12 16 1016.0 1013.4 -
01/03:30am 18.4 13.4 6.6 46 6.0 SE 22 30 12 16 1015.8 1013.2 -
01/03:00am 18.8 13.8 6.6 45 6.3 SE 22 32 12 17 1015.6 1013.0 -
01/02:30am 18.9 13.4 6.1 43 6.5 SE 24 33 13 18 1015.3 1012.7 -
01/02:00am 19.3 14.5 5.4 40 7.0 SE 20 28 11 15 1015.2 1012.6 -
01/01:30am 19.7 14.4 5.0 38 7.4 SE 22 30 12 16 1015.1 1012.5 -
01/01:00am 20.1 14.6 4.2 35 7.9 SE 22 30 12 16 1014.9 1012.4 -
01/12:30am 20.5 15.3 3.3 32 8.4 SE 20 26 11 14 1014.9 1012.4 -
01/12:00am 21.0 15.7 2.8 30 8.8 SE 20 28 11 15 1015.1 1012.5 -
 
Date/Time
WST
Temp
°C
App
Temp
°C
Dew
Point
Rel
Hum
%
Delta-T
°C
Wind Press
QNH
hPa
Press
MSL
hPa
Rain
since 9 am
mm
Dir
 
Spd
km/h
Gust
km/h
Spd
kts
Gust
kts
31/11:30pm 21.3 15.8 2.1 28 9.2 SE 20 28 11 15 1015.4 1012.8 -
31/11:00pm 20.7 15.2 0.5 26 9.3 SSE 19 22 10 12 1015.7 1013.1 0.0
31/10:30pm 20.4 16.4 0.8 27 9.1 S 11 13 6 7 1015.9 1013.3 0.0
31/10:00pm 20.3 16.3 0.2 26 9.2 S 11 13 6 7 1015.9 1013.3 0.0
31/09:30pm 20.3 17.2 1.2 28 8.9 S 7 9 4 5 1015.9 1013.3 0.0
31/09:00pm 20.5 17.4 0.4 26 9.2 S 6 7 3 4 1015.8 1013.2 0.0
31/08:30pm 22.0 18.6 -0.7 22 10.4 S 7 9 4 5 1015.6 1013.0 0.0
31/08:00pm 23.5 19.2 -1.4 19 11.3 SSW 11 15 6 8 1015.4 1012.8 0.0
31/07:30pm 24.3 19.5 -2.3 17 12.0 SSW 13 15 7 8 1015.2 1012.6 0.0
31/07:00pm 25.4 19.9 -2.2 16 12.6 SSW 17 20 9 11 1014.8 1012.3 0.0
31/06:30pm 26.2 20.3 -2.4 15 13.1 SSW 19 24 10 13 1014.3 1011.7 0.0
31/06:00pm 27.2 21.1 -3.6 13 13.9 SSW 19 26 10 14 1013.8 1011.2 0.0
31/05:30pm 28.0 22.1 -2.0 14 14.0 SW 19 28 10 15 1013.5 1010.9 0.0
31/05:00pm 27.7 21.7 -1.3 15 13.7 S 20 28 11 15 1013.2 1010.6 0.0
31/04:30pm 27.9 21.8 -2.0 14 13.9 SSW 20 32 11 17 1013.0 1010.5 0.0
31/04:00pm 28.3 21.8 0.1 16 13.7 SSW 24 30 13 16 1012.8 1010.2 0.0
31/03:30pm 28.9 22.4 0.6 16 13.9 S 24 30 13 16 1012.6 1010.0 0.0
31/03:00pm 28.4 22.4 1.0 17 13.5 SSW 22 30 12 16 1012.6 1010.0 0.0
31/02:30pm 28.4 22.9 1.8 18 13.3 S 20 32 11 17 1012.7 1010.1 0.0
31/02:00pm 27.8 22.2 3.5 21 12.5 S 22 28 12 15 1013.0 1010.5 0.0
31/01:30pm 27.0 22.0 3.5 22 12.0 S 19 26 10 14 1013.0 1010.5 0.0
31/01:00pm 28.8 23.8 3.6 20 13.0 SSW 19 28 10 15 1013.3 1010.7 0.0
31/12:30pm 27.9 23.8 4.2 22 12.3 S 15 26 8 14 1013.5 1010.9 0.0
31/12:00pm 26.1 21.8 5.1 26 11.0 SW 17 32 9 17 1013.8 1011.2 0.0
31/11:30am 26.4 21.9 5.9 27 10.9 S 19 26 10 14 1014.1 1011.5 0.0
31/11:00am 25.5 21.0 6.2 29 10.2 SSW 19 32 10 17 1014.4 1011.8 0.0
31/10:30am 24.2 19.8 6.5 32 9.4 SSW 19 24 10 13 1014.5 1011.9 0.0
31/10:00am 23.7 18.8 6.9 34 8.9 SSW 22 28 12 15 1014.6 1012.1 0.0
31/09:30am 23.5 18.3 7.2 35 8.7 SSW 24 35 13 19 1014.6 1012.1 0.0
31/09:00am 22.9 17.9 8.2 39 8.0 SSW 24 35 13 19 1014.6 1012.1 0.0
31/08:30am 22.4 17.4 8.1 40 7.7 SSW 24 33 13 18 1014.4 1011.8 0.0
31/08:00am 21.5 16.7 8.7 44 6.9 SSW 24 32 13 17 1014.3 1011.7 0.0
31/07:30am 21.0 15.8 8.9 46 6.6 SSW 26 33 14 18 1014.1 1011.5 0.0
31/07:00am 20.6 15.4 8.9 47 6.3 SSW 26 35 14 19 1013.7 1011.1 0.0
31/06:30am 20.2 15.3 8.5 47 6.3 SW 24 35 13 19 1013.5 1010.9 0.0
31/06:00am 19.9 15.8 8.6 48 6.1 SW 20 28 11 15 1013.0 1010.5 0.0
31/05:30am 19.6 16.6 7.7 46 6.3 SW 13 17 7 9 1012.5 1009.9 0.0
31/05:00am 20.2 16.8 7.6 44 6.7 SSW 15 20 8 11 1012.1 1009.5 0.0
31/04:30am 20.7 16.4 7.0 41 7.2 SSW 19 24 10 13 1011.8 1009.2 0.0
31/04:00am 21.3 16.3 6.4 38 7.8 SW 22 32 12 17 1011.3 1008.6 0.0
31/03:30am 21.9 16.8 6.2 36 8.2 SW 22 30 12 16 1011.0 1008.4 0.0
31/03:00am 22.3 17.6 6.1 35 8.4 SW 20 30 11 16 1011.0 1008.4 0.0
31/02:30am 22.7 18.0 6.0 34 8.7 SW 20 26 11 14 1010.8 1008.2 0.0
31/02:00am 23.3 18.1 5.7 32 9.2 SW 22 30 12 16 1010.7 1008.1 0.0
31/01:30am 23.8 18.9 5.2 30 9.6 SW 20 30 11 16 1010.7 1008.1 0.0
31/01:00am 23.5 19.0 4.0 28 9.8 SW 17 20 9 11 1010.8 1008.2 0.0
31/12:30am 23.8 19.6 3.7 27 10.1 WSW 15 20 8 11 1011.0 1008.4 0.0
31/12:00am 24.3 20.1 3.6 26 10.4 WSW 15 19 8 10 1011.3 1008.6 0.0
 
Date/Time
WST
Temp
°C
App
Temp
°C
Dew
Point
Rel
Hum
%
Delta-T
°C
Wind Press
QNH
hPa
Press
MSL
hPa
Rain
since 9 am
mm
Dir
 
Spd
km/h
Gust
km/h
Spd
kts
Gust
kts
30/11:30pm 24.5 20.6 3.2 25 10.6 WSW 13 17 7 9 1011.5 1008.9 0.0
30/11:00pm 25.3 21.0 3.3 24 11.1 WSW 15 17 8 9 1011.4 1008.8 0.0
30/10:30pm 26.4 22.1 3.0 22 11.8 WSW 15 20 8 11 1011.6 1009.0 0.0
30/10:00pm 26.3 22.3 2.9 22 11.8 WSW 13 17 7 9 1011.7 1009.1 0.0
30/09:30pm 26.7 22.8 3.2 22 11.9 W 13 15 7 8 1011.7 1009.1 0.0
30/09:00pm 26.6 23.0 3.2 22 11.9 W 11 13 6 7 1011.7 1009.1 0.0
30/08:30pm 27.5 23.9 3.2 21 12.4 W 11 13 6 7 1011.5 1008.9 0.0
30/08:00pm 28.9 24.8 2.2 18 13.5 W 13 15 7 8 1011.3 1008.6 0.0
30/07:30pm 30.1 25.5 1.5 16 14.4 W 15 20 8 11 1010.9 1008.3 0.0
30/07:00pm 31.4 25.7 0.7 14 15.4 W 20 28 11 15 1010.6 1008.0 0.0
30/06:30pm 32.3 25.8 0.4 13 16.0 W 24 33 13 18 1010.2 1007.6 0.0
30/06:00pm 33.1 26.7 1.0 13 16.3 W 24 35 13 19 1009.6 1006.9 0.0
30/05:30pm 34.5 28.3 2.1 13 16.9 W 24 35 13 19 1009.3 1006.6 0.0
30/05:00pm 34.6 28.0 2.2 13 17.0 WNW 26 35 14 19 1009.0 1006.4 0.0
30/04:30pm 34.9 28.2 1.3 12 17.3 W 26 43 14 23 1009.0 1006.4 0.0
30/04:00pm 35.1 29.2 1.5 12 17.5 NW 22 30 12 16 1009.0 1006.4 0.0
30/03:30pm 35.4 28.4 1.7 12 17.6 NW 28 35 15 19 1009.1 1006.5 0.0
30/03:00pm 35.2 28.3 2.6 13 17.2 WNW 28 41 15 22 1009.4 1006.7 0.0
30/02:30pm 36.0 29.0 2.1 12 17.8 W 28 41 15 22 1009.6 1006.9 0.0
30/02:19pm 35.0 27.3 2.5 13 17.1 W 32 74 17 40 1009.7 1007.1 0.0
30/02:00pm 35.3 28.8 2.7 13 17.3 W 26 39 14 21 1009.9 1007.3 0.0
30/01:30pm 34.9 27.6 2.4 13 17.1 W 30 43 16 23 1010.3 1007.7 0.0
30/01:29pm 35.1 28.2 2.6 13 17.1 W 28 43 15 23 1010.3 1007.7 0.0
30/01:00pm 34.2 30.0 3.9 15 16.3 W 15 20 8 11 1010.7 1008.1 0.0
30/12:30pm 33.6 28.2 4.3 16 15.8 NW 22 32 12 17 1011.3 1008.6 0.0
30/12:00pm 34.3 27.8 4.9 16 16.0 W 28 39 15 21 1011.7 1009.1 0.0
30/11:30am 33.8 29.0 5.4 17 15.6 WNW 20 41 11 22 1012.0 1009.4 0.0
30/11:00am 33.0 28.8 5.5 18 15.0 NNW 17 20 9 11 1012.1 1009.5 0.0
30/10:30am 32.3 27.1 5.7 19 14.5 W 22 26 12 14 1012.6 1010.0 0.0
30/10:00am 30.7 27.7 12.1 32 11.2 NW 19 26 10 14 1013.0 1010.5 0.0
30/09:30am 28.8 26.4 12.7 37 9.7 NNW 17 22 9 12 1013.5 1010.9 0.0
30/09:00am 27.4 25.2 13.4 42 8.5 NNW 17 24 9 13 1013.9 1011.3 -
30/08:30am 26.0 23.8 13.2 45 7.7 N 17 22 9 12 1014.1 1011.5 -
30/08:00am 24.6 22.2 12.5 46 7.1 N 17 20 9 11 1014.1 1011.5 -
30/07:30am 23.5 21.1 12.8 51 6.3 N 17 20 9 11 1014.2 1011.6 -
30/07:00am 22.7 22.0 13.2 55 5.6 NNW 9 13 5 7 1014.3 1011.7 -
30/06:30am 21.2 20.5 13.1 60 4.7 WNW 9 13 5 7 1014.4 1011.8 -
30/06:00am 20.6 19.9 13.1 62 4.4 NW 9 15 5 8 1014.1 1011.5 -
30/05:30am 20.2 19.0 12.9 63 4.2 N 11 15 6 8 1013.7 1011.1 -
30/05:00am 19.9 19.2 13.1 65 4.0 N 9 13 5 7 1013.5 1010.9 -
30/04:30am 20.0 18.8 12.7 63 4.2 NNW 11 13 6 7 1013.4 1010.8 -
30/04:00am 20.3 19.1 12.8 62 4.4 N 11 15 6 8 1013.3 1010.7 -
30/03:30am 20.6 19.0 12.8 61 4.5 N 13 19 7 10 1013.0 1010.5 -
30/03:00am 20.4 18.7 12.6 61 4.5 NNE 13 17 7 9 1013.0 1010.5 0.0
30/02:30am 20.6 19.3 12.6 60 4.6 NNE 11 17 6 9 1013.5 1010.9 -
30/02:00am 19.6 18.9 13.3 67 3.7 N 9 9 5 5 1013.8 1011.2 -
30/01:30am 19.7 19.6 13.4 67 3.7 NE 6 7 3 4 1013.9 1011.3 -
30/01:00am 20.1 20.0 14.0 68 3.6 ENE 7 11 4 6 1014.0 1011.4 -
30/12:30am 20.2 19.7 13.9 67 3.7 ENE 9 13 5 7 1014.0 1011.4 -
30/12:00am 20.6 19.3 13.8 65 4.0 ENE 13 20 7 11 1013.9 1011.3 -
 
Date/Time
WST
Temp
°C
App
Temp
°C
Dew
Point
Rel
Hum
%
Delta-T
°C
Wind Press
QNH
hPa
Press
MSL
hPa
Rain
since 9 am
mm
Dir
 
Spd
km/h
Gust
km/h
Spd
kts
Gust
kts
29/11:30pm 20.8 18.8 14.0 65 4.0 ENE 17 22 9 12 1014.1 1011.5 -
29/11:00pm 21.2 18.6 13.9 63 4.3 ENE 20 28 11 15 1014.1 1011.5 -
29/10:30pm 21.5 19.1 13.9 62 4.5 ENE 19 26 10 14 1014.5 1011.9 -
29/10:00pm 21.8 18.4 13.7 60 4.8 E 24 33 13 18 1014.7 1012.2 -
29/09:30pm 22.3 19.1 13.1 56 5.4 E 22 33 12 18 1015.3 1012.7 -
29/09:00pm 23.1 19.1 13.0 53 6.0 E 26 39 14 21 1015.2 1012.6 0.0
29/08:30pm 23.4 20.6 13.3 53 6.0 E 20 26 11 14 1015.4 1012.8 -
29/08:00pm 24.5 21.0 12.1 46 7.2 E 22 37 12 20 1014.7 1012.2 -
29/07:30pm 25.1 20.9 12.3 45 7.5 E 26 37 14 20 1014.5 1011.9 -
29/07:00pm 25.4 21.5 13.3 47 7.2 ENE 26 35 14 19 1014.2 1011.6 -
29/06:30pm 26.3 22.6 12.7 43 8.1 E 24 35 13 19 1013.8 1011.2 -
29/06:00pm 26.7 22.8 13.4 43 8.0 SE 26 35 14 19 1012.9 1010.4 -
29/05:30pm 27.5 22.5 13.4 41 8.5 SSE 32 39 17 21 1012.7 1010.1 -
29/05:00pm 28.4 23.7 13.1 39 9.2 S 30 41 16 22 1012.2 1009.6 -
29/04:30pm 28.3 23.4 14.2 42 8.7 SSE 33 44 18 24 1011.8 1009.2 -
29/04:00pm 29.5 24.7 14.1 39 9.5 S 32 43 17 23 1011.5 1008.9 -
29/03:30pm 30.8 28.3 12.2 32 11.2 NE 17 26 9 14 1010.2 1007.6 -
29/03:00pm 32.0 28.7 11.7 28 12.2 NNW 20 32 11 17 1010.4 1007.8 -
29/02:38pm 33.9 29.1 4.6 16 15.9 SSW 19 26 10 14 1010.3 1007.7 -
29/02:35pm 33.9 23.8 3.6 15 16.1 WNW 46 65 25 35 1010.6 1008.0 -
29/02:32pm 35.0 27.3 2.5 13 17.1 NW 32 50 17 27 1009.9 1007.3 -
29/02:30pm 35.1 32.7 10.2 22 14.8 N 13 20 7 11 1009.7 1007.1 -
29/02:00pm 35.5 34.2 9.8 21 15.2 N 7 11 4 6 1009.6 1006.9 -
29/01:30pm 36.1 33.8 10.3 21 15.4 N 13 24 7 13 1010.4 1007.8 -
29/01:00pm 35.9 34.3 10.2 21 15.3 NNW 9 24 5 13 1011.3 1008.6 -
29/12:30pm 36.1 33.0 10.3 21 15.4 NNW 17 24 9 13 1011.8 1009.2 -
29/12:00pm 35.8 33.2 10.8 22 15.0 NNW 15 32 8 17 1012.1 1009.5 -

Other Formats:

Comma delimited format used in spreadsheet applications
http://www.bom.gov.au/fwo/IDW60801/IDW60801.99434.axf

JavaScript Object Notation format (JSON) in row-major order
http://www.bom.gov.au/fwo/IDW60801/IDW60801.99434.json